createdAt,value
2023-01-21T00:01:21.974Z,92.50
2023-01-21T00:03:50.392Z,92.50
2023-01-21T00:06:18.766Z,92.50
2023-01-21T00:08:47.323Z,92.50
2023-01-21T00:11:17.005Z,92.50
2023-01-21T00:13:46.078Z,92.50
2023-01-21T00:16:15.850Z,92.50
2023-01-21T00:18:44.208Z,92.40
2023-01-21T00:21:12.490Z,92.40
2023-01-21T00:23:41.051Z,92.30
2023-01-21T00:26:11.914Z,92.30
2023-01-21T00:28:41.757Z,92.30
2023-01-21T00:31:12.169Z,92.30
2023-01-21T00:33:41.936Z,92.30
2023-01-21T00:36:13.798Z,92.20
2023-01-21T00:38:42.293Z,92.20
2023-01-21T00:41:13.102Z,92.20
2023-01-21T00:43:42.169Z,92.20
2023-01-21T00:46:11.983Z,92.10
2023-01-21T00:48:41.737Z,92.00
2023-01-21T00:51:10.956Z,92.00
2023-01-21T00:53:42.062Z,91.90
2023-01-21T00:56:11.631Z,91.90
2023-01-21T00:58:40.174Z,91.90
2023-01-21T01:01:11.525Z,91.90
2023-01-21T01:03:42.085Z,91.90
2023-01-21T01:06:13.089Z,91.90
2023-01-21T01:08:41.563Z,91.90
2023-01-21T01:11:09.894Z,91.90
2023-01-21T01:13:39.082Z,91.90
2023-01-21T01:16:08.328Z,91.90
2023-01-21T01:18:38.484Z,92.00
2023-01-21T01:21:11.946Z,92.00
2023-01-21T01:23:40.301Z,92.00
2023-01-21T01:26:12.755Z,92.10
2023-01-21T01:28:41.385Z,92.00
2023-01-21T01:31:14.138Z,91.90
2023-01-21T01:33:42.851Z,91.90
2023-01-21T01:36:16.520Z,91.90
2023-01-21T01:38:45.321Z,91.90
2023-01-21T01:41:17.642Z,91.90
2023-01-21T01:43:59.244Z,91.90
2023-01-21T01:46:31.068Z,91.90
2023-01-21T01:49:08.783Z,91.90
2023-01-21T01:51:46.551Z,91.90
2023-01-21T01:54:18.208Z,91.90
2023-01-21T01:56:51.760Z,91.90
2023-01-21T01:59:20.955Z,91.90
2023-01-21T02:01:49.377Z,91.90
2023-01-21T02:04:22.679Z,92.00
2023-01-21T02:06:54.447Z,91.90
2023-01-21T02:09:23.357Z,91.90
2023-01-21T02:11:51.732Z,92.00
2023-01-21T02:14:20.229Z,92.00
2023-01-21T02:17:08.901Z,92.10
2023-01-21T02:20:00.695Z,92.10
2023-01-21T02:22:38.545Z,92.20
2023-01-21T02:25:45.614Z,92.20
2023-01-21T02:28:52.213Z,92.20
2023-01-21T02:32:17.349Z,92.20
2023-01-21T02:34:54.165Z,92.30
2023-01-21T02:37:34.255Z,92.30
2023-01-21T02:40:15.817Z,92.30
2023-01-21T02:42:48.291Z,92.30
2023-01-21T02:45:25.029Z,92.20
2023-01-21T02:48:06.068Z,92.20
2023-01-21T02:50:37.529Z,92.20
2023-01-21T02:53:06.172Z,92.30
2023-01-21T02:55:37.941Z,92.20
2023-01-21T02:58:09.327Z,92.20
2023-01-21T03:00:54.502Z,92.20
2023-01-21T03:03:50.705Z,92.10
2023-01-21T03:06:49.126Z,92.20
2023-01-21T03:09:24.791Z,92.20
2023-01-21T03:12:10.097Z,92.10
2023-01-21T03:15:03.315Z,92.10
2023-01-21T03:17:41.595Z,92.20
2023-01-21T03:20:14.787Z,92.20
2023-01-21T03:22:45.633Z,92.20
2023-01-21T03:25:17.221Z,92.20
2023-01-21T03:27:48.089Z,92.20
2023-01-21T03:30:19.165Z,92.20
2023-01-21T03:32:52.204Z,92.20
2023-01-21T03:35:26.928Z,92.20
2023-01-21T03:38:04.434Z,92.20
2023-01-21T03:40:37.235Z,92.20
2023-01-21T03:43:05.646Z,92.20
2023-01-21T03:45:39.734Z,92.30
2023-01-21T03:48:19.771Z,92.30
2023-01-21T03:50:54.486Z,92.40
2023-01-21T03:53:24.290Z,92.40
2023-01-21T03:55:53.186Z,92.30
2023-01-21T03:58:21.531Z,92.30
2023-01-21T04:00:49.870Z,92.30
2023-01-21T04:03:18.160Z,92.40
2023-01-21T04:05:46.448Z,92.50
2023-01-21T04:08:14.783Z,92.50
2023-01-21T04:10:44.424Z,92.60
2023-01-21T04:13:12.712Z,92.60
2023-01-21T04:15:40.971Z,92.60
2023-01-21T04:18:09.242Z,92.60
2023-01-21T04:20:37.827Z,92.60
2023-01-21T04:23:06.069Z,92.50
2023-01-21T04:25:34.373Z,92.50
2023-01-21T04:28:03.991Z,92.60
2023-01-21T04:30:32.287Z,92.60
2023-01-21T04:33:00.585Z,92.60
2023-01-21T04:35:29.131Z,92.50
2023-01-21T04:37:57.361Z,92.60
2023-01-21T04:40:25.665Z,92.50
2023-01-21T04:42:53.926Z,92.50
2023-01-21T04:45:23.780Z,92.50
2023-01-21T04:47:52.098Z,92.50
2023-01-21T04:50:20.597Z,92.50
2023-01-21T04:52:48.919Z,92.50
2023-01-21T04:55:17.601Z,92.50
2023-01-21T04:57:45.882Z,92.50
2023-01-21T05:00:15.761Z,92.50
2023-01-21T05:02:45.572Z,92.40
2023-01-21T05:05:13.848Z,92.40
2023-01-21T05:07:42.157Z,92.50
2023-01-21T05:10:16.700Z,92.40
2023-01-21T05:12:45.145Z,92.40
2023-01-21T05:15:13.569Z,92.40
2023-01-21T05:17:41.868Z,92.40
2023-01-21T05:20:13.155Z,92.40
2023-01-21T05:22:41.522Z,92.40
2023-01-21T05:25:10.476Z,92.40
2023-01-21T05:27:38.721Z,92.40
2023-01-21T05:30:08.646Z,92.40
2023-01-21T05:32:37.490Z,92.50
2023-01-21T05:35:06.459Z,92.50
2023-01-21T05:37:36.166Z,92.50
2023-01-21T05:40:04.913Z,92.50
2023-01-21T05:42:33.193Z,92.50
2023-01-21T05:45:01.579Z,92.50
2023-01-21T05:47:29.878Z,92.50
2023-01-21T05:49:58.183Z,92.60
2023-01-21T05:52:26.481Z,92.50
2023-01-21T05:55:02.180Z,92.50
2023-01-21T05:57:31.835Z,92.60
2023-01-21T06:00:00.405Z,92.50
2023-01-21T06:02:28.881Z,92.50
2023-01-21T06:04:57.129Z,92.50
2023-01-21T06:07:25.430Z,92.50
2023-01-21T06:09:55.053Z,92.40
2023-01-21T06:12:24.755Z,92.40
2023-01-21T06:14:53.432Z,92.50
2023-01-21T06:17:21.735Z,92.40
2023-01-21T06:19:49.980Z,92.40
2023-01-21T06:22:19.233Z,92.50
2023-01-21T06:24:47.659Z,92.40
2023-01-21T06:27:17.335Z,92.50
2023-01-21T06:29:45.737Z,92.40
2023-01-21T06:32:13.997Z,92.40
2023-01-21T06:34:42.287Z,92.40
2023-01-21T06:37:10.565Z,92.40
2023-01-21T06:39:38.852Z,92.40
2023-01-21T06:42:07.163Z,92.40
2023-01-21T06:44:36.815Z,92.40
2023-01-21T06:47:05.303Z,92.30
2023-01-21T06:49:33.612Z,92.30
2023-01-21T06:52:01.962Z,92.30
2023-01-21T06:54:30.608Z,92.30
2023-01-21T06:56:58.960Z,92.40
2023-01-21T06:59:27.331Z,92.40
2023-01-21T07:01:59.035Z,92.40
2023-01-21T07:04:28.091Z,92.40
2023-01-21T07:06:56.359Z,92.40
2023-01-21T07:09:24.629Z,92.40
2023-01-21T07:11:52.895Z,92.40
2023-01-21T07:14:21.225Z,92.50
2023-01-21T07:16:49.516Z,92.50
2023-01-21T07:19:19.157Z,92.40
2023-01-21T07:21:47.457Z,92.50
2023-01-21T07:24:15.713Z,92.50
2023-01-21T07:26:43.981Z,92.50
2023-01-21T07:29:12.397Z,92.50
2023-01-21T07:31:40.835Z,92.50
2023-01-21T07:34:09.517Z,92.50
2023-01-21T07:36:39.197Z,92.50
2023-01-21T07:39:07.584Z,92.50
2023-01-21T07:41:35.970Z,92.50
2023-01-21T07:44:04.221Z,92.40
2023-01-21T07:46:33.308Z,92.40
2023-01-21T07:49:01.632Z,92.40
2023-01-21T07:51:29.988Z,92.40
2023-01-21T07:53:59.814Z,92.50
2023-01-21T07:56:28.198Z,92.50
2023-01-21T07:58:57.069Z,92.60
2023-01-21T08:01:27.080Z,92.60
2023-01-21T08:03:55.384Z,92.60
2023-01-21T08:06:23.651Z,92.70
2023-01-21T08:08:52.032Z,92.70
2023-01-21T08:11:21.701Z,92.70
2023-01-21T08:13:50.975Z,92.70
2023-01-21T08:16:19.353Z,92.70
2023-01-21T08:18:47.641Z,92.70
2023-01-21T08:21:15.966Z,92.70
2023-01-21T08:23:44.281Z,92.70
2023-01-21T08:26:12.567Z,92.80
2023-01-21T08:28:43.099Z,92.70
2023-01-21T08:31:14.668Z,92.70
2023-01-21T08:33:44.017Z,92.70
2023-01-21T08:36:12.380Z,92.70
2023-01-21T08:38:41.138Z,92.70
2023-01-21T08:41:10.663Z,92.80
2023-01-21T08:43:40.547Z,92.70
2023-01-21T08:46:10.216Z,92.70
2023-01-21T08:48:39.157Z,92.60
2023-01-21T08:51:07.868Z,92.50
2023-01-21T08:53:36.159Z,92.60
2023-01-21T08:56:05.913Z,92.50
2023-01-21T08:58:34.916Z,92.60
2023-01-21T09:01:10.214Z,92.60
2023-01-21T09:03:39.001Z,92.50
2023-01-21T09:06:08.479Z,92.60
2023-01-21T09:08:37.399Z,92.60
2023-01-21T09:11:07.055Z,92.70
2023-01-21T09:13:38.872Z,92.70
2023-01-21T09:16:12.411Z,92.80
2023-01-21T09:18:41.025Z,92.80
2023-01-21T09:21:11.461Z,92.90
2023-01-21T09:23:41.177Z,92.90
2023-01-21T09:26:14.807Z,92.90
2023-01-21T09:28:45.197Z,93.00
2023-01-21T09:31:18.286Z,93.00
2023-01-21T09:33:52.187Z,93.00
2023-01-21T09:36:23.306Z,93.00
2023-01-21T09:38:52.236Z,93.10
2023-01-21T09:41:26.889Z,93.10
2023-01-21T09:44:03.288Z,93.10
2023-01-21T09:46:42.224Z,93.10
2023-01-21T09:49:18.159Z,93.10
2023-01-21T09:52:04.900Z,93.10
2023-01-21T09:54:36.019Z,93.10
2023-01-21T09:57:19.089Z,93.20
2023-01-21T10:00:05.476Z,93.20
2023-01-21T10:02:46.791Z,93.20
2023-01-21T10:05:51.259Z,93.20
2023-01-21T10:08:31.171Z,93.20
2023-01-21T10:11:18.870Z,93.20
2023-01-21T10:14:05.032Z,93.20
2023-01-21T10:16:40.818Z,93.20
2023-01-21T10:19:14.706Z,93.20
2023-01-21T10:21:51.240Z,93.20
2023-01-21T10:24:25.079Z,93.10
2023-01-21T10:26:55.543Z,93.20
2023-01-21T10:29:27.400Z,93.10
2023-01-21T10:32:02.201Z,93.10
2023-01-21T10:34:41.550Z,93.00
2023-01-21T10:37:21.477Z,93.10
2023-01-21T10:40:00.681Z,93.10
2023-01-21T10:42:51.634Z,93.10
2023-01-21T10:45:33.410Z,93.10
2023-01-21T10:48:08.975Z,93.10
2023-01-21T10:50:49.613Z,93.10
2023-01-21T10:53:26.171Z,93.10
2023-01-21T10:56:18.862Z,93.10
2023-01-21T10:58:52.834Z,93.10
2023-01-21T11:01:26.522Z,93.20
2023-01-21T11:03:58.378Z,93.20
2023-01-21T11:06:30.156Z,93.10
2023-01-21T11:09:02.970Z,93.10
2023-01-21T11:11:33.972Z,93.10
2023-01-21T11:14:02.627Z,93.00
2023-01-21T11:16:44.141Z,93.00
2023-01-21T11:19:17.819Z,92.90
2023-01-21T11:22:04.201Z,92.80
2023-01-21T11:24:43.308Z,92.70
2023-01-21T11:27:22.043Z,92.60
2023-01-21T11:29:51.738Z,92.60
2023-01-21T11:32:23.385Z,92.70
2023-01-21T11:34:56.820Z,92.60
2023-01-21T11:37:29.025Z,92.50
2023-01-21T11:40:00.026Z,92.50
2023-01-21T11:42:28.399Z,92.50
2023-01-21T11:45:01.359Z,92.40
2023-01-21T11:47:36.463Z,92.40
2023-01-21T11:50:15.315Z,92.30
2023-01-21T11:52:45.354Z,92.10
2023-01-21T11:55:23.935Z,92.00
2023-01-21T11:57:55.430Z,92.00
2023-01-21T12:00:28.161Z,92.00
2023-01-21T12:03:01.266Z,92.00
2023-01-21T12:05:33.941Z,92.00
2023-01-21T12:08:05.288Z,91.80
2023-01-21T12:10:37.415Z,91.70
2023-01-21T12:13:31.334Z,91.60
2023-01-21T12:16:33.295Z,91.60
2023-01-21T12:19:24.405Z,91.60
2023-01-21T12:22:17.435Z,91.60
2023-01-21T12:25:09.110Z,91.50
2023-01-21T12:27:52.117Z,91.60
2023-01-21T12:30:33.761Z,91.50
2023-01-21T12:33:08.889Z,91.50
2023-01-21T12:35:41.925Z,91.50
2023-01-21T12:38:18.737Z,91.40
2023-01-21T12:40:55.748Z,91.30
2023-01-21T12:43:28.899Z,91.20
2023-01-21T12:46:02.967Z,90.90
2023-01-21T12:48:38.110Z,90.80
2023-01-21T12:51:10.320Z,90.80
2023-01-21T12:53:46.404Z,90.50
2023-01-21T12:56:28.541Z,90.50
2023-01-21T12:59:03.457Z,90.20
2023-01-21T13:01:53.472Z,90.00
2023-01-21T13:04:46.189Z,90.20
2023-01-21T13:07:29.879Z,90.20
2023-01-21T13:10:05.025Z,89.90
2023-01-21T13:12:36.636Z,89.60
2023-01-21T13:15:16.058Z,89.50
2023-01-21T13:17:49.186Z,89.50
2023-01-21T13:20:20.358Z,89.50
2023-01-21T13:23:03.678Z,89.20
2023-01-21T13:25:43.094Z,89.30
2023-01-21T13:28:19.637Z,89.10
2023-01-21T13:30:56.651Z,88.30
2023-01-21T13:33:36.625Z,88.70
2023-01-21T13:36:33.682Z,88.80
2023-01-21T13:39:09.834Z,88.90
2023-01-21T13:41:52.707Z,88.70
2023-01-21T13:45:01.577Z,88.40
2023-01-21T13:47:59.078Z,88.10
2023-01-21T13:50:54.890Z,88.20
2023-01-21T13:53:39.253Z,88.60
2023-01-21T13:56:27.004Z,87.80
2023-01-21T13:59:01.655Z,88.20
2023-01-21T14:01:38.845Z,88.10
2023-01-21T14:04:13.694Z,88.70
2023-01-21T14:06:53.120Z,88.70
2023-01-21T14:09:31.611Z,88.70
2023-01-21T14:12:06.891Z,88.80
2023-01-21T14:15:19.287Z,88.80
2023-01-21T14:18:14.668Z,89.10
2023-01-21T14:20:58.612Z,88.70
2023-01-21T14:23:46.405Z,88.40
2023-01-21T14:26:43.722Z,88.30
2023-01-21T14:29:26.608Z,88.30
2023-01-21T14:32:05.188Z,88.50
2023-01-21T14:34:44.491Z,88.60
2023-01-21T14:37:16.916Z,89.10
2023-01-21T14:40:01.243Z,88.70
2023-01-21T14:42:43.532Z,88.20
2023-01-21T14:45:14.843Z,87.80
2023-01-21T14:47:50.719Z,87.70
2023-01-21T14:50:47.612Z,87.50
2023-01-21T14:53:23.231Z,87.70
2023-01-21T14:56:17.935Z,87.40
2023-01-21T14:58:48.151Z,87.40
2023-01-21T15:01:34.105Z,87.70
2023-01-21T15:04:07.746Z,87.70
2023-01-21T15:06:41.836Z,87.60
2023-01-21T15:09:22.855Z,87.60
2023-01-21T15:11:56.833Z,87.70
2023-01-21T15:14:29.024Z,87.40
2023-01-21T15:16:57.427Z,87.50
2023-01-21T15:19:32.893Z,87.50
2023-01-21T15:22:40.925Z,87.50
2023-01-21T15:25:34.253Z,87.70
2023-01-21T15:28:43.884Z,87.60
2023-01-21T15:31:16.596Z,88.00
2023-01-21T15:33:50.478Z,88.10
2023-01-21T15:36:26.300Z,88.20
2023-01-21T15:39:02.001Z,88.40
2023-01-21T15:41:44.702Z,88.60
2023-01-21T15:44:35.750Z,88.30
2023-01-21T15:47:35.541Z,88.40
2023-01-21T15:50:11.011Z,88.60
2023-01-21T15:52:56.397Z,88.70
2023-01-21T15:56:03.576Z,88.80
2023-01-21T15:58:46.853Z,88.60
2023-01-21T16:01:26.897Z,88.40
2023-01-21T16:04:29.123Z,88.60
2023-01-21T16:07:16.787Z,88.80
2023-01-21T16:10:01.332Z,88.80
2023-01-21T16:12:43.070Z,88.90
2023-01-21T16:15:24.215Z,89.10
2023-01-21T16:18:11.264Z,89.20
2023-01-21T16:20:44.847Z,89.00
2023-01-21T16:23:17.097Z,88.90
2023-01-21T16:25:50.165Z,88.90
2023-01-21T16:28:21.405Z,89.10
2023-01-21T16:30:57.993Z,89.00
2023-01-21T16:33:26.721Z,89.10
2023-01-21T16:36:00.789Z,89.20
2023-01-21T16:38:32.152Z,89.30
2023-01-21T16:41:27.748Z,89.40
2023-01-21T16:44:01.419Z,89.30
2023-01-21T16:46:34.731Z,89.30
2023-01-21T16:49:05.799Z,89.30
2023-01-21T16:51:36.176Z,89.20
2023-01-21T16:54:26.657Z,89.20
2023-01-21T16:56:58.853Z,89.30
2023-01-21T16:59:31.876Z,89.30
2023-01-21T17:02:01.367Z,89.40
2023-01-21T17:04:31.062Z,89.50
2023-01-21T17:07:00.133Z,89.50
2023-01-21T17:09:32.961Z,89.40
2023-01-21T17:12:06.697Z,89.60
2023-01-21T17:14:36.797Z,89.60
2023-01-21T17:17:09.702Z,89.60
2023-01-21T17:19:40.978Z,89.60
2023-01-21T17:22:16.555Z,89.60
2023-01-21T17:25:02.880Z,89.70
2023-01-21T17:27:31.743Z,89.60
2023-01-21T17:30:25.008Z,89.60
2023-01-21T17:32:57.980Z,89.30
2023-01-21T17:35:28.674Z,89.10
2023-01-21T17:37:59.131Z,88.90
2023-01-21T17:40:32.416Z,88.30
2023-01-21T17:43:11.942Z,88.30
2023-01-21T17:45:47.609Z,88.20
2023-01-21T17:48:26.629Z,88.40
2023-01-21T17:50:56.243Z,88.00
2023-01-21T17:53:28.616Z,87.70
2023-01-21T17:56:03.566Z,87.30
2023-01-21T17:58:53.508Z,86.80
2023-01-21T18:01:23.287Z,87.00
2023-01-21T18:03:51.654Z,86.10
2023-01-21T18:06:25.695Z,85.10
2023-01-21T18:08:54.392Z,84.90
2023-01-21T18:11:23.741Z,85.70
2023-01-21T18:13:52.648Z,85.70
2023-01-21T18:16:22.582Z,85.60
2023-01-21T18:18:54.010Z,85.40
2023-01-21T18:21:23.147Z,85.40
2023-01-21T18:23:51.876Z,86.00
2023-01-21T18:26:30.047Z,86.20
2023-01-21T18:28:58.696Z,86.00
2023-01-21T18:31:28.539Z,86.40
2023-01-21T18:33:56.864Z,86.30
2023-01-21T18:36:25.254Z,86.20
2023-01-21T18:38:53.641Z,86.50
2023-01-21T18:41:21.956Z,86.90
2023-01-21T18:43:50.310Z,86.60
2023-01-21T18:46:19.862Z,86.80
2023-01-21T18:48:49.702Z,86.80
2023-01-21T18:51:18.113Z,86.80
2023-01-21T18:53:46.550Z,87.00
2023-01-21T18:56:17.208Z,87.30
2023-01-21T18:58:45.567Z,87.50
2023-01-21T19:01:23.029Z,87.60
2023-01-21T19:03:55.690Z,87.50
2023-01-21T19:06:26.422Z,87.60
2023-01-21T19:08:55.381Z,87.90
2023-01-21T19:11:23.800Z,88.00
2023-01-21T19:13:52.686Z,88.00
2023-01-21T19:16:22.939Z,88.30
2023-01-21T19:18:51.360Z,88.40
2023-01-21T19:21:21.112Z,88.50
2023-01-21T19:23:49.417Z,88.60
2023-01-21T19:26:18.214Z,88.90
2023-01-21T19:28:46.619Z,88.90
2023-01-21T19:31:15.012Z,89.00
2023-01-21T19:33:45.739Z,89.10
2023-01-21T19:36:17.977Z,89.20
2023-01-21T19:38:56.790Z,89.30
2023-01-21T19:41:25.615Z,89.60
2023-01-21T19:43:54.002Z,89.70
2023-01-21T19:46:24.192Z,89.80
2023-01-21T19:48:53.708Z,89.90
2023-01-21T19:51:22.363Z,90.10
2023-01-21T19:53:52.097Z,90.20
2023-01-21T19:56:25.373Z,90.30
2023-01-21T19:58:54.375Z,90.50
2023-01-21T20:01:22.707Z,90.60
2023-01-21T20:04:00.322Z,90.50
2023-01-21T20:06:34.247Z,90.60
2023-01-21T20:09:04.137Z,90.60
2023-01-21T20:11:32.421Z,90.70
2023-01-21T20:14:00.735Z,90.70
2023-01-21T20:16:31.163Z,90.70
2023-01-21T20:19:02.223Z,90.80
2023-01-21T20:21:30.500Z,90.90
2023-01-21T20:23:58.841Z,91.00
2023-01-21T20:26:29.627Z,91.00
2023-01-21T20:29:00.647Z,91.10
2023-01-21T20:31:30.170Z,91.20
2023-01-21T20:33:58.531Z,91.20
2023-01-21T20:36:28.230Z,91.20
2023-01-21T20:38:56.746Z,91.10
2023-01-21T20:41:25.153Z,91.10
2023-01-21T20:43:54.903Z,91.10
2023-01-21T20:46:26.701Z,91.10
2023-01-21T20:48:55.820Z,91.00
2023-01-21T20:51:24.588Z,91.20
2023-01-21T20:53:53.514Z,91.20
2023-01-21T20:56:26.332Z,91.20
2023-01-21T20:58:56.173Z,91.20
2023-01-21T21:01:27.076Z,91.20
2023-01-21T21:03:55.381Z,91.30
2023-01-21T21:06:27.735Z,91.30
2023-01-21T21:08:56.647Z,91.40
2023-01-21T21:11:25.003Z,91.40
2023-01-21T21:13:53.320Z,91.50
2023-01-21T21:16:26.304Z,91.40
2023-01-21T21:18:56.196Z,91.50
2023-01-21T21:21:25.014Z,91.50
2023-01-21T21:23:53.954Z,91.50
2023-01-21T21:26:24.873Z,91.60
2023-01-21T21:28:55.606Z,91.70
2023-01-21T21:31:27.123Z,91.70
2023-01-21T21:33:55.714Z,91.70
2023-01-21T21:36:25.160Z,91.60
2023-01-21T21:38:56.599Z,91.70
2023-01-21T21:41:44.723Z,91.70
2023-01-21T21:44:14.278Z,91.60
2023-01-21T21:47:01.221Z,91.70
2023-01-21T21:49:30.020Z,91.70
2023-01-21T21:52:00.284Z,91.70
2023-01-21T21:54:28.910Z,91.80
2023-01-21T21:56:57.479Z,91.80
2023-01-21T21:59:26.137Z,91.80
2023-01-21T22:01:55.842Z,91.80
2023-01-21T22:04:24.251Z,91.80
2023-01-21T22:06:52.763Z,91.80
2023-01-21T22:09:21.279Z,91.90
2023-01-21T22:11:49.720Z,91.90
2023-01-21T22:14:18.159Z,91.80
2023-01-21T22:16:46.526Z,91.80
2023-01-21T22:19:16.520Z,91.80
2023-01-21T22:21:44.819Z,91.70
2023-01-21T22:24:13.353Z,91.70
2023-01-21T22:26:41.614Z,91.70
2023-01-21T22:29:10.050Z,91.70
2023-01-21T22:31:38.426Z,91.70
2023-01-21T22:34:06.860Z,91.60
2023-01-21T22:36:36.588Z,91.60
2023-01-21T22:39:05.132Z,91.60
2023-01-21T22:41:34.771Z,91.60
2023-01-21T22:44:03.044Z,91.60
2023-01-21T22:46:31.533Z,91.70
2023-01-21T22:49:00.136Z,91.60
2023-01-21T22:51:28.999Z,91.60
2023-01-21T22:54:00.166Z,91.70
2023-01-21T22:56:49.502Z,91.80
2023-01-21T22:59:16.885Z,91.90
2023-01-21T23:01:45.263Z,91.90
2023-01-21T23:04:14.834Z,91.90
2023-01-21T23:06:44.692Z,91.80
2023-01-21T23:09:16.331Z,91.80
2023-01-21T23:11:45.233Z,91.70
2023-01-21T23:14:13.805Z,91.70
2023-01-21T23:16:42.252Z,91.70
2023-01-21T23:19:10.625Z,91.60
2023-01-21T23:21:39.848Z,91.70
2023-01-21T23:24:09.107Z,91.70
2023-01-21T23:26:39.105Z,91.80
2023-01-21T23:29:07.472Z,91.80
2023-01-21T23:31:36.088Z,91.80
2023-01-21T23:34:04.514Z,91.80
2023-01-21T23:36:32.905Z,91.90
2023-01-21T23:39:01.236Z,91.90
2023-01-21T23:41:29.627Z,92.00
2023-01-21T23:44:02.655Z,92.00
2023-01-21T23:46:31.071Z,92.00
2023-01-21T23:48:59.427Z,92.00
2023-01-21T23:51:27.691Z,92.10
2023-01-21T23:53:57.796Z,92.10
2023-01-21T23:56:27.271Z,92.10
2023-01-21T23:58:55.877Z,92.00
